Time;durP1;ratioP1;P1;durP2;ratioP2;P2;SDS_P1;SDS_P2;PMS_P1;PMS_P2;Temp;Humidity;BMP_temperature;BMP_pressure;BME280_temperature;BME280_humidity;BME280_pressure;Samples;Min_cycle;Max_cycle;Signal;HPM_P1;HPM_P2
2021/04/30 00:02:20;;;;;;;8.83;8.10;;;;;;;12.97;56.19;100002.71;1698092;83;21092;-96
2021/04/30 00:04:51;;;;;;;9.05;8.35;;;;;;;12.97;56.41;100004.86;1661043;85;21186;-96
2021/04/30 00:07:20;;;;;;;10.53;9.63;;;;;;;12.94;56.63;100004.46;1664101;85;21363;-96
2021/04/30 00:09:49;;;;;;;11.05;9.83;;;;;;;12.94;56.60;99999.11;1653200;86;21726;-96
2021/04/30 00:12:21;;;;;;;11.60;8.63;;;;;;;12.94;56.52;100001.79;1630765;86;21057;-96
2021/04/30 00:14:57;;;;;;;8.95;8.15;;;;;;;12.95;56.36;100000.25;1626611;86;21870;-95
2021/04/30 00:18:05;;;;;;;;;;;;;;;;;;;;;
2021/04/30 00:20:51;;;;;;;9.93;9.00;;;;;;;12.96;56.63;100000.56;1798311;78;23098;-96
2021/04/30 00:23:30;;;;;;;10.23;9.43;;;;;;;12.91;56.81;100008.39;1734487;79;21120;-96
2021/04/30 00:26:03;;;;;;;9.88;8.88;;;;;;;12.90;56.77;100008.08;1694631;83;21156;-96
2021/04/30 00:28:34;;;;;;;9.70;8.75;;;;;;;12.88;56.82;99999.97;1703216;83;21796;-96
2021/04/30 00:31:06;;;;;;;10.15;9.25;;;;;;;12.85;57.14;99990.52;1709032;83;21144;-96
2021/04/30 00:33:37;;;;;;;8.98;8.28;;;;;;;12.76;56.80;99978.42;1666202;83;21112;-96
2021/04/30 00:36:05;;;;;;;11.08;9.80;;;;;;;12.89;56.97;99998.42;1688358;84;21227;-96
2021/04/30 00:38:35;;;;;;;14.03;9.70;;;;;;;12.87;57.10;100005.03;1692837;83;21240;-97
2021/04/30 00:41:08;;;;;;;10.55;8.73;;;;;;;12.87;56.93;99999.16;1656796;84;21204;-96
2021/04/30 00:43:43;;;;;;;11.18;9.43;;;;;;;12.89;57.00;100003.77;1679929;84;21779;-96
2021/04/30 00:46:18;;;;;;;9.43;8.40;;;;;;;12.87;57.04;99997.00;1647616;85;21172;-96
2021/04/30 00:48:49;;;;;;;9.75;8.95;;;;;;;12.86;57.17;99996.16;1635849;86;21142;-95
2021/04/30 00:51:20;;;;;;;10.48;9.43;;;;;;;12.82;57.39;99998.44;1641595;86;21273;-96
2021/04/30 00:53:49;;;;;;;10.00;8.33;;;;;;;12.78;57.44;99989.72;1659972;85;21296;-96
2021/04/30 00:56:21;;;;;;;10.28;9.28;;;;;;;12.75;57.70;99992.81;1669793;84;21092;-96
2021/04/30 00:58:54;;;;;;;10.40;9.40;;;;;;;12.73;57.69;100001.56;1656808;85;21201;-96
2021/04/30 01:01:24;;;;;;;10.80;9.60;;;;;;;12.73;57.76;100004.23;1675088;84;21102;-96
2021/04/30 01:03:59;;;;;;;9.45;8.73;;;;;;;12.74;57.63;100000.54;1681958;84;21329;-95
2021/04/30 01:07:01;;;;;;;10.77;9.80;;;;;;;12.77;57.79;99985.39;1826620;76;22827;-96
2021/04/30 01:09:31;;;;;;;10.32;9.53;;;;;;;12.73;57.75;99994.34;1768580;78;21427;-96
2021/04/30 01:12:00;;;;;;;10.63;9.70;;;;;;;12.71;57.83;99992.93;1733957;78;21061;-96
2021/04/30 01:14:32;;;;;;;9.93;8.68;;;;;;;12.73;57.72;99988.19;1709946;82;21186;-96
2021/04/30 01:17:08;;;;;;;9.93;8.90;;;;;;;12.73;57.66;99983.66;1662817;83;21136;-96
2021/04/30 01:19:40;;;;;;;11.90;10.35;;;;;;;12.76;57.60;99983.77;1684551;83;21276;-95
2021/04/30 01:22:10;;;;;;;9.53;8.75;;;;;;;12.78;57.57;99977.69;1685494;81;21220;-96
2021/04/30 01:24:40;;;;;;;9.93;9.03;;;;;;;12.79;57.66;99977.98;1682535;83;21654;-96
2021/04/30 01:27:13;;;;;;;9.63;8.75;;;;;;;12.77;57.60;99970.69;1690014;83;21274;-96
2021/04/30 01:32:27;;;;;;;9.40;8.60;;;;;;;12.78;57.58;99962.45;1827498;77;22773;-96
2021/04/30 01:34:56;;;;;;;9.50;8.70;;;;;;;12.76;57.56;99961.03;1710564;77;21221;-96
2021/04/30 01:37:27;;;;;;;10.45;9.03;;;;;;;12.77;57.52;99968.85;1681667;83;21302;-96
2021/04/30 01:40:34;;;;;;;9.03;8.33;;;;;;;12.83;57.53;99960.50;1868530;75;22968;-94
2021/04/30 01:43:07;;;;;;;8.20;7.60;;;;;;;12.79;57.44;99967.27;1768503;79;21188;-95
2021/04/30 01:45:51;;;;;;;8.90;8.20;;;;;;;12.79;57.59;99967.27;1761419;77;21238;-92
2021/04/30 01:48:20;;;;;;;10.08;7.92;;;;;;;12.77;57.60;99961.32;1768995;78;21139;-94
2021/04/30 01:51:05;;;;;;;10.03;9.03;;;;;;;12.76;57.56;99959.70;1765646;80;21176;-96
2021/04/30 01:53:45;;;;;;;8.90;8.20;;;;;;;12.75;57.66;99962.90;1769226;80;21263;-96
2021/04/30 01:56:29;;;;;;;8.55;7.85;;;;;;;12.73;57.78;99958.25;1794231;79;21306;-96
2021/04/30 01:59:46;;;;;;;9.25;8.25;;;;;;;12.77;57.68;99946.12;1834218;75;24167;-96
2021/04/30 02:02:21;;;;;;;10.38;9.33;;;;;;;12.73;57.60;99951.56;1754385;78;21109;-96
2021/04/30 02:04:54;;;;;;;9.57;8.70;;;;;;;12.70;57.82;99952.53;1761812;79;21164;-96
2021/04/30 02:08:05;;;;;;;9.75;8.75;;;;;;;12.74;57.74;99937.17;1793679;78;28379;-96
2021/04/30 02:13:43;;;;;;;9.35;8.55;;;;;;;12.68;57.98;99945.20;1784022;79;22819;-96
2021/04/30 02:16:17;;;;;;;8.00;7.30;;;;;;;12.64;57.81;99945.65;1725465;82;21523;-96
2021/04/30 02:18:50;;;;;;;9.55;8.75;;;;;;;12.62;58.01;99939.70;1734894;81;22186;-90
2021/04/30 02:21:21;;;;;;;10.57;8.50;;;;;;;12.64;57.81;99944.31;1733934;81;21191;-96
2021/04/30 02:23:54;;;;;;;8.43;7.75;;;;;;;12.62;58.04;99933.02;1733701;80;21079;-96
2021/04/30 02:26:25;;;;;;;9.40;8.50;;;;;;;12.61;58.08;99938.56;1681239;81;21203;-92
2021/04/30 02:28:53;;;;;;;9.33;8.23;;;;;;;12.58;58.18;99928.28;1721032;81;21333;-95
2021/04/30 02:31:21;;;;;;;8.05;7.40;;;;;;;12.58;58.06;99925.11;1717020;81;21205;-94
2021/04/30 02:33:49;;;;;;;8.25;7.50;;;;;;;12.54;58.19;99925.20;1711177;81;21646;-96
2021/04/30 02:36:17;;;;;;;7.77;7.20;;;;;;;12.55;58.19;99923.38;1717734;82;21188;-94
2021/04/30 02:38:44;;;;;;;8.85;7.92;;;;;;;12.55;58.20;99923.38;1712791;82;21334;-95
2021/04/30 02:41:12;;;;;;;8.83;8.18;;;;;;;12.52;58.21;99920.59;1714747;82;21203;-94
2021/04/30 02:43:39;;;;;;;8.38;7.67;;;;;;;12.53;58.10;99920.91;1712837;83;21179;-94
2021/04/30 02:46:07;;;;;;;8.00;7.43;;;;;;;12.57;58.08;99926.66;1719093;83;21171;-95
2021/04/30 02:48:37;;;;;;;8.08;7.20;;;;;;;12.57;58.09;99933.34;1718034;82;21172;-94
2021/04/30 02:51:08;;;;;;;8.00;7.30;;;;;;;12.56;58.09;99927.15;1704098;82;21156;-94
2021/04/30 02:53:36;;;;;;;7.85;7.25;;;;;;;12.57;58.04;99935.48;1710553;82;21188;-94
2021/04/30 02:56:07;;;;;;;7.67;7.07;;;;;;;12.58;58.10;99935.81;1693163;82;21089;-94
2021/04/30 02:58:35;;;;;;;6.93;6.43;;;;;;;12.55;58.17;99927.39;1663691;83;21624;-96
2021/04/30 03:01:04;;;;;;;7.87;7.25;;;;;;;12.58;58.15;99934.96;1681032;84;21120;-96
2021/04/30 03:03:34;;;;;;;8.30;7.45;;;;;;;12.56;58.10;99929.82;1653632;84;21654;-95
2021/04/30 03:06:10;;;;;;;7.97;7.42;;;;;;;12.54;58.29;99937.77;1669363;84;21311;-95
2021/04/30 03:08:45;;;;;;;9.15;8.05;;;;;;;12.51;58.37;99939.50;1671638;84;22174;-96
2021/04/30 03:11:27;;;;;;;;;;;;;;;;;;;;;
2021/04/30 03:14:23;;;;;;;9.20;8.33;;;;;;;12.56;58.33;99936.51;1855115;75;24725;-96
2021/04/30 03:16:54;;;;;;;9.48;8.58;;;;;;;12.52;58.23;99933.95;1787231;77;21239;-96
2021/04/30 03:19:28;;;;;;;8.73;7.83;;;;;;;12.52;58.30;99933.14;1781281;79;21188;-96
2021/04/30 03:21:55;;;;;;;8.60;7.90;;;;;;;12.53;58.30;99934.27;1740898;79;21190;-94
2021/04/30 03:24:28;;;;;;;6.87;6.47;;;;;;;12.49;58.45;99931.72;1760762;79;22059;-94
2021/04/30 03:27:12;;;;;;;7.53;6.93;;;;;;;12.50;58.41;99939.22;1752834;80;21199;-96
2021/04/30 03:29:43;;;;;;;7.03;6.50;;;;;;;12.50;58.48;99950.72;1756842;80;21136;-95
2021/04/30 03:32:29;;;;;;;9.53;7.53;;;;;;;12.49;58.37;99950.92;1752665;79;21160;-96
2021/04/30 03:35:02;;;;;;;7.90;7.20;;;;;;;12.45;58.49;99948.70;1745181;80;21256;-94
2021/04/30 03:37:31;;;;;;;7.57;7.07;;;;;;;12.43;58.61;99952.59;1760375;80;21222;-94
2021/04/30 03:39:59;;;;;;;8.27;7.57;;;;;;;12.44;58.51;99956.39;1752087;80;21242;-96
2021/04/30 03:42:27;;;;;;;8.63;7.83;;;;;;;12.44;58.46;99950.23;1725698;81;21214;-96
2021/04/30 03:44:55;;;;;;;8.43;7.80;;;;;;;12.44;58.49;99947.03;1759932;78;21105;-94
2021/04/30 03:47:23;;;;;;;7.83;7.23;;;;;;;12.44;58.34;99950.23;1762538;79;21328;-94
2021/04/30 03:49:50;;;;;;;7.83;7.13;;;;;;;12.44;58.43;99948.90;1772480;79;21342;-92
2021/04/30 03:52:18;;;;;;;7.72;7.15;;;;;;;12.43;58.51;99941.89;1748518;80;21124;-93
2021/04/30 03:54:57;;;;;;;8.13;7.33;;;;;;;12.48;58.41;99939.42;1759746;78;21152;-95
2021/04/30 03:57:38;;;;;;;8.15;7.03;;;;;;;12.53;58.20;99937.47;1755039;80;21163;-95
2021/04/30 04:00:19;;;;;;;7.53;6.70;;;;;;;12.59;58.07;99934.76;1754052;80;21370;-93
2021/04/30 04:02:50;;;;;;;7.15;6.55;;;;;;;12.68;57.76;99939.86;1763048;80;21227;-94
2021/04/30 04:05:20;;;;;;;8.97;7.13;;;;;;;12.74;57.61;99947.87;1722822;81;21206;-93
2021/04/30 04:07:48;;;;;;;7.20;6.60;;;;;;;12.79;57.29;99944.55;1755801;80;21198;-94
2021/04/30 04:10:18;;;;;;;7.60;6.97;;;;;;;12.82;57.14;99937.45;1761807;80;21170;-94
2021/04/30 04:12:47;;;;;;;6.58;5.97;;;;;;;12.84;57.06;99935.38;1720696;80;21644;-94
2021/04/30 04:15:18;;;;;;;7.80;6.92;;;;;;;12.83;56.99;99929.22;1771290;79;21271;-94
2021/04/30 04:17:45;;;;;;;6.93;6.23;;;;;;;12.84;56.88;99925.48;1776450;79;21653;-94
2021/04/30 04:20:19;;;;;;;7.12;6.55;;;;;;;12.88;56.71;99927.22;1795531;80;21187;-94
2021/04/30 04:22:47;;;;;;;6.85;6.25;;;;;;;12.91;56.59;99934.02;1778855;78;21342;-95
2021/04/30 04:25:18;;;;;;;6.80;6.20;;;;;;;12.94;56.57;99933.08;1753044;80;21196;-95
2021/04/30 04:27:47;;;;;;;8.65;6.53;;;;;;;12.98;56.42;99926.27;1792644;79;21729;-92
2021/04/30 04:30:18;;;;;;;7.65;6.70;;;;;;;13.01;56.28;99928.48;1795388;78;21215;-93
2021/04/30 04:32:47;;;;;;;9.70;6.47;;;;;;;13.05;56.07;99928.88;1788459;79;21169;-95
2021/04/30 04:35:16;;;;;;;6.72;6.05;;;;;;;13.10;55.89;99927.73;1763691;80;21061;-94
2021/04/30 04:37:46;;;;;;;6.42;5.67;;;;;;;12.97;55.54;99895.70;1760081;80;21176;-95
2021/04/30 04:40:16;;;;;;;6.60;6.03;;;;;;;13.32;55.14;99925.58;1751366;80;21128;-95
2021/04/30 04:42:44;;;;;;;6.28;5.72;;;;;;;13.73;54.44;99913.53;1721289;81;21729;-96
2021/04/30 04:45:16;;;;;;;6.92;5.62;;;;;;;14.28;52.85;99907.42;1740158;81;21139;-96
2021/04/30 04:47:51;;;;;;;7.03;6.22;;;;;;;14.82;51.70;99908.95;1721604;81;21602;-96
2021/04/30 04:50:57;;;;;;;5.90;5.25;;;;;;;15.45;49.85;99912.20;1723800;81;21285;-94
2021/04/30 04:54:49;;;;;;;5.80;5.30;;;;;;;15.93;48.51;99905.84;1759543;78;21157;-95
2021/04/30 04:58:07;;;;;;;5.80;5.17;;;;;;;16.23;47.56;99913.76;1658272;81;21132;-96
2021/04/30 05:01:13;;;;;;;7.78;5.78;;;;;;;16.04;47.82;99918.98;1731754;79;21313;-95
2021/04/30 05:04:41;;;;;;;5.97;5.40;;;;;;;15.69;48.46;99900.44;1761999;79;21104;-96
2021/04/30 05:07:21;;;;;;;4.35;4.10;;;;;;;15.56;48.66;99915.44;1739925;79;21224;-96
2021/04/30 05:10:04;;;;;;;4.87;4.20;;;;;;;15.55;48.91;99917.81;1775886;80;21210;-96
2021/04/30 05:12:37;;;;;;;7.30;4.97;;;;;;;15.68;48.88;99914.91;1749327;80;21116;-96
2021/04/30 05:15:15;;;;;;;5.28;4.97;;;;;;;15.68;48.33;99897.45;1765803;80;21674;-96
2021/04/30 05:17:53;;;;;;;5.62;4.67;;;;;;;15.50;48.79;99914.49;1763232;80;21231;-96
2021/04/30 05:21:03;;;;;;;6.72;4.97;;;;;;;15.31;49.44;99906.20;1819231;77;22776;-95
2021/04/30 05:23:40;;;;;;;5.97;5.42;;;;;;;15.18;49.71;99906.71;1763179;80;21023;-96
2021/04/30 05:26:39;;;;;;;4.92;4.45;;;;;;;15.06;50.18;99914.42;1724284;82;21105;-96
2021/04/30 05:29:36;;;;;;;6.33;4.90;;;;;;;15.00;50.45;99914.81;1724513;82;21151;-95
2021/04/30 05:32:23;;;;;;;7.03;5.42;;;;;;;15.11;50.33;99903.83;1673921;84;21331;-96
2021/04/30 05:49:08;;;;;;;4.87;4.50;;;;;;;15.06;50.60;99893.77;1770184;79;23073;-96
2021/04/30 05:52:09;;;;;;;5.12;4.50;;;;;;;14.85;51.11;99892.94;1764657;79;29003;-96
2021/04/30 05:54:47;;;;;;;5.58;5.17;;;;;;;14.93;50.98;99896.11;1736698;81;21137;-96
2021/04/30 05:57:50;;;;;;;4.47;4.08;;;;;;;15.03;50.70;99892.90;1741803;81;21319;-93
2021/04/30 06:00:18;;;;;;;12.50;3.95;;;;;;;14.84;51.17;99893.97;1733389;81;21125;-95
2021/04/30 06:02:45;;;;;;;8.08;4.58;;;;;;;14.77;51.42;99892.20;1685131;83;21275;-92
2021/04/30 06:05:17;;;;;;;6.92;4.35;;;;;;;14.78;51.57;99897.05;1680412;81;21136;-95
2021/04/30 06:07:50;;;;;;;6.20;4.65;;;;;;;14.82;51.43;99886.14;1683700;83;21157;-93
2021/04/30 06:10:22;;;;;;;6.20;4.15;;;;;;;14.89;51.41;99882.05;1675830;83;21208;-94
2021/04/30 06:12:51;;;;;;;9.38;4.90;;;;;;;15.03;51.09;99884.00;1657363;82;21052;-94
2021/04/30 06:15:20;;;;;;;7.37;4.75;;;;;;;15.09;50.95;99891.16;1647687;86;21175;-93
2021/04/30 06:17:49;;;;;;;5.53;5.05;;;;;;;15.06;50.84;99888.92;1650706;86;21848;-93
2021/04/30 06:20:17;;;;;;;6.67;4.70;;;;;;;15.02;50.85;99885.06;1653414;85;21337;-91
2021/04/30 06:22:46;;;;;;;5.78;3.98;;;;;;;15.03;51.02;99886.69;1586933;86;21123;-93
2021/04/30 06:25:14;;;;;;;4.78;3.77;;;;;;;15.03;51.15;99886.19;1642781;86;21690;-94
2021/04/30 06:27:41;;;;;;;6.28;5.67;;;;;;;15.07;51.18;99895.92;1645395;86;21194;-94
2021/04/30 06:30:10;;;;;;;5.05;4.30;;;;;;;15.04;51.13;99890.49;1643066;86;21357;-93
2021/04/30 06:32:39;;;;;;;5.42;4.60;;;;;;;15.15;51.08;99875.48;1642314;86;21183;-94
2021/04/30 06:35:11;;;;;;;5.35;4.95;;;;;;;15.27;51.10;99883.02;1624873;84;21119;-94
2021/04/30 06:37:39;;;;;;;7.22;4.33;;;;;;;15.49;50.49;99877.12;1661041;85;21364;-94
2021/04/30 06:40:08;;;;;;;5.17;4.78;;;;;;;15.56;50.41;99873.27;1642662;86;21206;-95
2021/04/30 06:42:36;;;;;;;7.30;4.22;;;;;;;15.54;50.70;99869.19;1645304;85;21304;-94
2021/04/30 06:45:06;;;;;;;5.40;4.85;;;;;;;15.57;50.75;99868.70;1652718;83;21597;-94
2021/04/30 06:47:37;;;;;;;11.73;4.80;;;;;;;15.32;50.91;99825.42;1647276;86;21171;-95
2021/04/30 06:50:26;;;;;;;10.72;4.83;;;;;;;15.64;50.87;99884.73;1646192;82;21129;-92
2021/04/30 06:53:26;;;;;;;5.15;4.45;;;;;;;15.65;51.18;99869.72;1618116;87;21138;-94
2021/04/30 06:56:07;;;;;;;4.65;4.35;;;;;;;15.66;51.35;99872.69;1652124;83;21238;-92
2021/04/30 06:59:00;;;;;;;11.33;4.90;;;;;;;15.79;51.59;99875.70;1658866;85;21165;-96
2021/04/30 07:05:28;;;;;;;5.72;4.03;;;;;;;16.23;51.15;99877.99;1596959;88;21429;-95
2021/04/30 07:15:03;;;;;;;7.12;4.55;;;;;;;16.47;50.90;99855.36;1494598;91;23379;31
2021/04/30 07:17:52;;;;;;;7.22;4.72;;;;;;;16.57;51.06;99846.66;1614429;87;21297;-84
2021/04/30 07:20:18;;;;;;;7.80;4.80;;;;;;;16.74;50.69;99865.55;1584790;89;21830;-86
2021/04/30 07:22:46;;;;;;;7.75;3.87;;;;;;;16.88;50.23;99864.24;1587053;88;21586;-87
2021/04/30 07:25:14;;;;;;;4.05;3.60;;;;;;;16.95;50.26;99854.66;1606260;88;21196;-87
2021/04/30 07:27:41;;;;;;;10.53;5.15;;;;;;;17.03;49.99;99858.86;1641022;86;21290;-88
2021/04/30 07:31:09;;;;;;;9.15;4.67;;;;;;;17.18;50.07;99857.77;1756272;79;23009;-88
2021/04/30 07:33:38;;;;;;;4.78;3.80;;;;;;;17.24;50.14;99855.98;1736589;80;21104;-86
2021/04/30 07:36:07;;;;;;;6.53;4.10;;;;;;;17.31;49.93;99850.71;1720882;82;21513;-92
2021/04/30 07:38:34;;;;;;;6.22;4.35;;;;;;;17.39;50.07;99844.09;1708382;82;21755;-83
2021/04/30 07:41:01;;;;;;;5.83;5.42;;;;;;;17.39;50.07;99844.09;1717084;82;21629;-84
2021/04/30 07:43:28;;;;;;;6.00;4.30;;;;;;;16.90;50.12;99788.09;1711565;82;21301;-84
2021/04/30 07:45:55;;;;;;;9.18;5.03;;;;;;;17.28;50.41;99851.19;1671206;82;21104;-84
2021/04/30 07:48:22;;;;;;;5.62;5.12;;;;;;;17.33;50.06;99847.78;1679190;83;21782;-84
2021/04/30 07:50:50;;;;;;;6.45;4.65;;;;;;;17.29;50.00;99844.76;1678921;83;21203;-84
2021/04/30 07:53:17;;;;;;;4.12;3.83;;;;;;;17.25;50.12;99850.86;1678644;83;21160;-84
2021/04/30 07:55:45;;;;;;;7.92;4.35;;;;;;;17.17;50.51;99849.39;1681385;82;21123;-83
2021/04/30 07:58:12;;;;;;;5.85;4.80;;;;;;;17.20;50.36;99840.83;1671762;83;21818;-83
2021/04/30 08:00:39;;;;;;;7.10;3.85;;;;;;;17.26;50.46;99837.16;1683572;83;21100;-87
2021/04/30 08:03:06;;;;;;;4.97;4.45;;;;;;;17.45;50.10;99828.83;1695550;82;21682;-85
2021/04/30 08:05:37;;;;;;;4.83;4.42;;;;;;;17.66;49.67;99833.45;1707720;82;21306;-86
2021/04/30 08:08:04;;;;;;;7.00;4.92;;;;;;;17.88;49.10;99829.48;1714048;82;21261;-85
2021/04/30 08:10:32;;;;;;;6.53;3.98;;;;;;;18.06;48.57;99829.73;1703776;82;21144;-85
2021/04/30 08:12:59;;;;;;;6.70;4.03;;;;;;;18.22;48.15;99832.08;1707419;82;21098;-84
2021/04/30 08:15:26;;;;;;;6.65;4.55;;;;;;;18.26;47.93;99825.64;1708609;82;21170;-82
2021/04/30 08:17:54;;;;;;;3.50;3.20;;;;;;;18.27;47.71;99815.12;1707845;82;21221;-85
2021/04/30 08:20:21;;;;;;;5.60;3.98;;;;;;;18.32;47.62;99823.28;1711076;82;21178;-84
2021/04/30 08:22:51;;;;;;;8.23;3.77;;;;;;;18.38;47.49;99820.11;1708705;82;21071;-85
2021/04/30 08:25:18;;;;;;;4.28;3.87;;;;;;;18.47;47.58;99818.05;1706521;82;21194;-84
2021/04/30 08:27:47;;;;;;;5.05;3.90;;;;;;;18.49;47.23;99825.36;1711297;82;21232;-85
2021/04/30 08:30:16;;;;;;;4.58;3.80;;;;;;;18.47;46.83;99814.55;1690088;83;21348;-84
2021/04/30 08:32:44;;;;;;;5.55;3.35;;;;;;;18.37;46.98;99815.25;1680816;83;21202;-84
2021/04/30 08:35:12;;;;;;;5.80;3.90;;;;;;;18.52;46.78;99811.11;1681746;84;21123;-86
2021/04/30 08:37:40;;;;;;;7.15;2.90;;;;;;;18.52;46.78;99811.11;1654994;85;21212;-85
2021/04/30 08:40:11;;;;;;;4.33;3.25;;;;;;;18.48;46.23;99817.00;1676571;83;21212;-87
2021/04/30 08:42:51;;;;;;;3.87;3.47;;;;;;;18.37;46.31;99797.72;1804079;77;23366;-85
2021/04/30 08:45:19;;;;;;;5.58;3.72;;;;;;;18.30;46.58;99801.14;1752384;79;21238;-86
2021/04/30 08:47:46;;;;;;;4.80;3.77;;;;;;;18.38;46.79;99795.83;1706411;83;21184;-84
2021/04/30 08:50:14;;;;;;;3.67;3.47;;;;;;;18.48;46.33;99796.76;1729401;83;22193;-83
2021/04/30 08:52:43;;;;;;;4.05;3.10;;;;;;;18.46;46.19;99798.09;1706989;83;21196;-83
2021/04/30 08:55:17;;;;;;;4.33;3.42;;;;;;;18.45;46.19;99793.20;1715705;83;21154;-83
2021/04/30 08:57:52;;;;;;;4.97;3.72;;;;;;;18.45;46.19;99793.20;1715196;83;21195;-82
2021/04/30 09:00:18;;;;;;;2.77;2.58;;;;;;;18.51;46.01;99787.87;1711363;83;22024;-84
2021/04/30 09:02:46;;;;;;;3.98;3.20;;;;;;;18.47;46.03;99772.72;1711214;83;21221;-84
2021/04/30 09:05:24;;;;;;;3.15;2.95;;;;;;;18.31;46.33;99758.78;1714071;83;21210;-84
2021/04/30 09:07:58;;;;;;;3.92;3.60;;;;;;;18.55;45.74;99773.60;1673874;84;21216;-84
2021/04/30 09:10:31;;;;;;;;;;;;;;;18.56;45.55;99785.23;1656434;85;21208;-82
2021/04/30 09:13:12;;;;;;;6.17;3.30;;;;;;;18.50;45.56;99765.48;1664770;84;20208;-82
2021/04/30 09:15:43;;;;;;;3.75;2.83;;;;;;;18.42;45.91;99777.55;1696443;83;21325;-82
2021/04/30 09:18:24;;;;;;;6.33;3.85;;;;;;;18.53;45.87;99781.69;1697146;83;21171;-82
2021/04/30 09:20:55;;;;;;;4.30;3.90;;;;;;;18.62;45.54;99776.92;1692610;83;21202;-82
2021/04/30 09:23:38;;;;;;;7.58;3.05;;;;;;;18.63;45.59;99776.41;1677531;83;21109;-82
2021/04/30 09:26:25;;;;;;;3.65;3.17;;;;;;;18.74;45.66;99775.43;1669406;84;21190;-83
2021/04/30 09:29:08;;;;;;;;;;;;;;;18.90;45.20;99774.23;1666149;84;21332;-87
2021/04/30 09:31:41;;;;;;;6.33;3.65;;;;;;;19.08;44.56;99779.26;1671531;84;20210;-84
2021/04/30 09:34:35;;;;;;;3.55;2.92;;;;;;;19.13;44.32;99774.42;1682936;84;21275;-83
2021/04/30 09:37:17;;;;;;;3.00;2.70;;;;;;;19.15;44.21;99771.72;1670007;84;21525;-85
2021/04/30 09:40:09;;;;;;;5.15;3.10;;;;;;;19.20;44.13;99762.31;1657365;83;21144;31
2021/04/30 09:43:25;;;;;;;6.55;2.67;;;;;;;19.21;44.14;99768.52;1607914;87;21344;-93
2021/04/30 09:45:56;;;;;;;3.52;3.12;;;;;;;19.19;44.05;99761.22;1613590;84;21709;-92
2021/04/30 09:48:27;;;;;;;5.97;2.92;;;;;;;19.26;43.90;99767.22;1619008;87;21238;-96
2021/04/30 09:51:06;;;;;;;;;;;;;;;;;;;;;
2021/04/30 09:54:28;;;;;;;4.75;2.35;;;;;;;19.21;43.46;99725.30;1588434;89;21181;-95
2021/04/30 09:57:17;;;;;;;2.80;2.22;;;;;;;19.35;44.04;99755.40;1571174;88;21417;-96
2021/04/30 10:00:09;;;;;;;5.25;3.60;;;;;;;19.44;43.70;99752.48;1578520;88;21344;-95
2021/04/30 10:02:56;;;;;;;5.78;2.83;;;;;;;19.57;43.32;99751.18;1579219;90;21205;-96
2021/04/30 10:05:27;;;;;;;5.42;2.80;;;;;;;19.57;43.07;99749.83;1589943;89;21256;-96
2021/04/30 10:08:19;;;;;;;2.70;2.15;;;;;;;19.49;43.20;99744.93;1542168;90;21233;-96
2021/04/30 10:11:32;;;;;;;4.53;3.10;;;;;;;19.46;43.54;99738.17;1572399;90;21218;-94
2021/04/30 10:14:01;;;;;;;2.60;2.40;;;;;;;19.48;43.56;99726.56;1553749;89;21209;-96
2021/04/30 10:16:59;;;;;;;3.85;3.00;;;;;;;19.56;43.38;99734.16;1578159;90;21171;-96
2021/04/30 10:19:57;;;;;;;;;;;;;;;;;;;;;
2021/04/30 10:22:35;;;;;;;2.55;2.45;;;;;;;19.64;43.29;99720.13;1549862;90;20183;-95
2021/04/30 11:50:06;;;;;;;8.03;2.80;;;;;;;21.38;41.95;99631.47;1778490;75;21183;-93
2021/04/30 13:46:57;;;;;;;1.67;1.57;;;;;;;21.35;40.86;99501.11;1744406;79;21157;-94
2021/04/30 13:50:12;;;;;;;4.97;2.42;;;;;;;21.35;40.67;99499.75;1840629;77;23585;-93
2021/04/30 13:52:40;;;;;;;5.17;1.87;;;;;;;21.31;40.78;99508.98;1803300;77;21350;-95
2021/04/30 13:55:14;;;;;;;3.80;2.02;;;;;;;21.33;40.87;99510.06;1756024;79;21143;-95
2021/04/30 13:57:43;;;;;;;4.78;2.80;;;;;;;21.34;40.87;99504.38;1710416;82;21178;-96
2021/04/30 14:00:17;;;;;;;6.30;2.55;;;;;;;21.34;42.00;99518.45;1701380;82;21161;-93
2021/04/30 14:02:46;;;;;;;4.35;3.40;;;;;;;21.24;45.64;99523.94;1704489;81;21174;-96
2021/04/30 14:05:22;;;;;;;7.47;3.30;;;;;;;20.95;46.46;99521.35;1708338;83;21090;-96
2021/04/30 14:07:58;;;;;;;7.55;4.03;;;;;;;20.68;49.08;99538.49;1661516;84;21106;-95
2021/04/30 14:10:44;;;;;;;4.80;3.67;;;;;;;20.32;50.41;99561.53;1659901;83;21246;-96
2021/04/30 14:13:18;;;;;;;6.62;3.22;;;;;;;19.90;52.17;99584.25;1678144;83;21061;-96
2021/04/30 14:15:52;;;;;;;3.98;3.35;;;;;;;19.57;55.63;99583.08;1720536;82;21179;-96
2021/04/30 14:18:30;;;;;;;4.67;3.70;;;;;;;19.19;57.35;99570.77;1677481;82;21278;-95
2021/04/30 14:21:00;;;;;;;4.72;4.20;;;;;;;18.84;58.24;99584.39;1705199;82;21305;-96
2021/04/30 14:23:51;;;;;;;6.25;4.12;;;;;;;18.48;59.46;99588.98;1770248;79;23533;-96
2021/04/30 14:26:20;;;;;;;7.35;3.83;;;;;;;18.22;60.96;99587.96;1762257;80;21140;-94
2021/04/30 14:28:57;;;;;;;4.47;3.37;;;;;;;18.04;62.38;99582.40;1739375;79;21148;-95
2021/04/30 14:31:29;;;;;;;4.12;3.05;;;;;;;17.74;64.82;99571.30;1737662;81;21243;-96
2021/04/30 14:34:06;;;;;;;4.42;3.58;;;;;;;17.35;65.25;99564.17;1717357;81;21526;-96
2021/04/30 14:37:22;;;;;;;4.10;3.60;;;;;;;16.93;67.49;99551.25;1805931;77;22958;-96
2021/04/30 14:40:05;;;;;;;5.20;3.35;;;;;;;16.74;67.96;99552.04;1777792;79;21164;-96
2021/04/30 14:42:40;;;;;;;3.87;3.33;;;;;;;16.68;68.72;99548.47;1756823;80;21689;-96
2021/04/30 14:45:18;;;;;;;3.58;3.27;;;;;;;16.60;69.27;99546.20;1686805;82;21189;-95
2021/04/30 14:47:48;;;;;;;4.97;3.90;;;;;;;16.46;69.22;99541.72;1704009;82;21200;-96
2021/04/30 14:51:01;;;;;;;4.53;3.90;;;;;;;16.39;70.23;99536.19;1794015;77;23013;-95
2021/04/30 14:53:48;;;;;;;5.05;3.95;;;;;;;16.40;70.68;99533.27;1745897;78;21135;-95
2021/04/30 14:56:29;;;;;;;4.25;3.85;;;;;;;16.50;71.03;99536.13;1742058;75;21260;-96
2021/04/30 14:59:15;;;;;;;;;;;;;;;;;;;;;
2021/04/30 15:05:26;;;;;;;4.97;4.22;;;;;;;16.76;70.55;99524.34;1840943;76;22942;-96
2021/04/30 15:08:00;;;;;;;4.20;3.85;;;;;;;16.87;70.04;99532.06;1735419;80;21240;-95
2021/04/30 15:13:34;;;;;;;7.17;5.77;;;;;;;17.09;69.40;99521.31;1772610;79;21783;-96
2021/04/30 15:16:09;;;;;;;4.53;4.10;;;;;;;17.01;70.14;99523.91;1742632;80;21296;-96
2021/04/30 15:18:47;;;;;;;4.40;4.10;;;;;;;16.99;70.14;99519.31;1725691;81;21292;-95
2021/04/30 15:21:19;;;;;;;5.40;4.85;;;;;;;17.06;70.37;99522.61;1738587;80;21270;-95
2021/04/30 15:38:15;;;;;;;5.97;5.42;;;;;;;17.17;71.31;99511.97;1651006;81;22986;31
2021/04/30 15:41:26;;;;;;;6.80;5.47;;;;;;;17.22;71.40;99503.42;1554176;90;21372;-96
2021/04/30 16:03:56;;;;;;;8.88;6.30;;;;;;;17.22;71.13;99506.11;1803622;77;23145;-95
2021/04/30 16:06:49;;;;;;;7.60;6.42;;;;;;;17.40;70.26;99496.05;1756100;78;21085;-94
2021/04/30 16:09:43;;;;;;;7.17;6.53;;;;;;;17.46;70.14;99495.86;1787064;79;23693;-95
2021/04/30 16:15:11;;;;;;;;;;;;;;;;;;;;;
2021/04/30 16:18:12;;;;;;;;;;;;;;;;;;;;;
2021/04/30 16:21:01;;;;;;;;;;;;;;;;;;;;;
2021/04/30 16:40:23;;;;;;;11.30;9.48;;;;;;;16.96;72.21;99425.59;1828406;77;27405;-95
2021/04/30 16:43:07;;;;;;;8.40;7.70;;;;;;;17.53;72.12;99509.66;1836247;76;21246;-96
2021/04/30 16:46:21;;;;;;;10.68;9.63;;;;;;;17.60;72.39;99508.38;1778775;77;21177;-96
2021/04/30 17:20:12;;;;;;;;;;;;;;;;;;;;;
2021/04/30 17:22:43;;;;;;;9.58;8.63;;;;;;;17.47;71.38;99491.28;1755663;79;21195;-94
2021/04/30 17:25:45;;;;;;;9.67;8.83;;;;;;;17.64;71.12;99490.63;1819188;77;22395;-94
2021/04/30 17:28:16;;;;;;;11.22;9.43;;;;;;;17.68;71.59;99498.48;1817105;77;21144;-95
2021/04/30 17:30:49;;;;;;;10.60;8.28;;;;;;;17.68;71.85;99508.45;1821002;77;21138;-95
2021/04/30 17:36:27;;;;;;;9.65;8.73;;;;;;;17.63;72.34;99520.01;1819059;77;24770;-92
2021/04/30 17:39:06;;;;;;;10.98;9.98;;;;;;;17.63;72.57;99526.75;1752935;79;21120;-93
2021/04/30 17:42:04;;;;;;;11.78;9.65;;;;;;;17.69;72.72;99532.46;1724838;81;21322;-94
2021/04/30 17:44:39;;;;;;;10.72;9.63;;;;;;;17.68;72.94;99540.25;1721270;80;21838;-94
2021/04/30 17:47:21;;;;;;;13.17;11.97;;;;;;;17.64;73.24;99544.53;1676894;82;21215;-94
2021/04/30 17:50:03;;;;;;;11.00;9.75;;;;;;;16.77;73.27;99413.51;1683820;82;21274;-95
2021/04/30 18:03:42;;;;;;;6.60;6.00;;;;;;;17.49;70.08;99593.67;1876303;74;22725;-95
2021/04/30 18:06:53;;;;;;;6.55;5.92;;;;;;;17.36;67.78;99609.42;1881834;74;21100;-95
2021/04/30 18:09:29;;;;;;;8.55;6.00;;;;;;;17.34;65.68;99619.09;1880622;76;21147;-94